Aviation Digital Data Service (ADDS)

Output produced by METARs form (1440 UTC 19 April 2019)
found at http://www.aviationweather.gov/metar/data/
 
Forecast for: EKKA (KARUP (DAN-AFB) , DK)
Text: TAF EKKA 191405Z 1915/2015 09008KT 9999 FEW200
Forecast period: 1500 to 1700 UTC 19 April 2019
Forecast type: FROM: standard forecast or significant change
Winds: from the E (90 degrees) at 9 MPH (8 knots; 4.1 m/s)
Visibility: 6 or more miles 10+ km)
Ceiling: at least 12,000 feet AGL
Clouds: few clouds at 20000 feet AGL
Weather: no significant weather forecast for this period
Text: BECMG 1917/1920 VRB05KT
Forecast period: 1700 UTC 19 April 2019 to 1500 UTC 20 April 2019
Forecast type: BECOMING: Conditions expected to become as follows by 2000 UTC 19 April 2019
Winds: variable direction winds at 6 MPH (5 knots; 2.6 m/s)
Visibility: 6 or more miles 10+ km)
Ceiling: at least 12,000 feet AGL
Clouds: few clouds at 20000 feet AGL
Weather: no significant weather forecast for this period